sensor_id;sensor_type;location;lat;lon;timestamp;temperature;humidity
68701;DHT22;55682;51.114;5.882;2024-01-06T00:01:29;9.38;87.38
68701;DHT22;55682;51.114;5.882;2024-01-06T00:03:55;9.40;87.37
68701;DHT22;55682;51.114;5.882;2024-01-06T00:06:21;9.45;87.34
68701;DHT22;55682;51.114;5.882;2024-01-06T00:08:47;9.50;87.16
68701;DHT22;55682;51.114;5.882;2024-01-06T00:11:19;9.53;86.99
68701;DHT22;55682;51.114;5.882;2024-01-06T00:13:46;9.53;86.84
68701;DHT22;55682;51.114;5.882;2024-01-06T00:16:11;9.54;86.77
68701;DHT22;55682;51.114;5.882;2024-01-06T00:18:37;9.59;86.74
68701;DHT22;55682;51.114;5.882;2024-01-06T00:21:03;9.60;86.59
68701;DHT22;55682;51.114;5.882;2024-01-06T00:23:28;9.57;86.70
68701;DHT22;55682;51.114;5.882;2024-01-06T00:25:54;9.60;86.69
68701;DHT22;55682;51.114;5.882;2024-01-06T00:28:20;9.64;86.59
68701;DHT22;55682;51.114;5.882;2024-01-06T00:30:45;9.62;86.59
68701;DHT22;55682;51.114;5.882;2024-01-06T00:33:12;9.64;86.64
68701;DHT22;55682;51.114;5.882;2024-01-06T00:35:38;9.64;86.47
68701;DHT22;55682;51.114;5.882;2024-01-06T00:38:03;9.68;86.54
68701;DHT22;55682;51.114;5.882;2024-01-06T00:40:29;9.69;86.38
68701;DHT22;55682;51.114;5.882;2024-01-06T00:42:54;9.69;86.33
68701;DHT22;55682;51.114;5.882;2024-01-06T00:45:20;9.72;86.31
68701;DHT22;55682;51.114;5.882;2024-01-06T00:47:46;9.79;86.25
68701;DHT22;55682;51.114;5.882;2024-01-06T00:50:12;9.80;85.93
68701;DHT22;55682;51.114;5.882;2024-01-06T00:52:38;9.79;85.85
68701;DHT22;55682;51.114;5.882;2024-01-06T00:55:04;9.79;85.92
68701;DHT22;55682;51.114;5.882;2024-01-06T00:57:29;9.82;85.75
68701;DHT22;55682;51.114;5.882;2024-01-06T00:59:55;9.83;85.67
68701;DHT22;55682;51.114;5.882;2024-01-06T01:02:21;9.84;85.55
68701;DHT22;55682;51.114;5.882;2024-01-06T01:04:47;9.82;85.54
68701;DHT22;55682;51.114;5.882;2024-01-06T01:07:12;9.78;85.53
68701;DHT22;55682;51.114;5.882;2024-01-06T01:09:38;9.77;85.56
68701;DHT22;55682;51.114;5.882;2024-01-06T01:12:04;9.77;85.64
68701;DHT22;55682;51.114;5.882;2024-01-06T01:14:30;9.79;85.66
68701;DHT22;55682;51.114;5.882;2024-01-06T01:16:55;9.80;85.64
68701;DHT22;55682;51.114;5.882;2024-01-06T01:19:21;9.84;85.48
68701;DHT22;55682;51.114;5.882;2024-01-06T01:21:46;9.85;85.37
68701;DHT22;55682;51.114;5.882;2024-01-06T01:24:12;9.86;85.21
68701;DHT22;55682;51.114;5.882;2024-01-06T01:26:37;9.86;85.21
68701;DHT22;55682;51.114;5.882;2024-01-06T01:29:03;9.86;85.05
68701;DHT22;55682;51.114;5.882;2024-01-06T01:31:29;9.88;85.02
68701;DHT22;55682;51.114;5.882;2024-01-06T01:33:54;9.90;84.91
68701;DHT22;55682;51.114;5.882;2024-01-06T01:36:20;9.91;84.80
68701;DHT22;55682;51.114;5.882;2024-01-06T01:38:45;9.93;84.71
68701;DHT22;55682;51.114;5.882;2024-01-06T01:41:11;9.95;84.66
68701;DHT22;55682;51.114;5.882;2024-01-06T01:43:36;9.98;84.56
68701;DHT22;55682;51.114;5.882;2024-01-06T01:46:03;9.97;84.42
68701;DHT22;55682;51.114;5.882;2024-01-06T01:48:30;9.97;84.38
68701;DHT22;55682;51.114;5.882;2024-01-06T01:50:59;10.00;84.26
68701;DHT22;55682;51.114;5.882;2024-01-06T01:53:24;10.01;84.13
68701;DHT22;55682;51.114;5.882;2024-01-06T01:55:52;10.00;84.00
68701;DHT22;55682;51.114;5.882;2024-01-06T01:58:19;9.99;83.99
68701;DHT22;55682;51.114;5.882;2024-01-06T02:00:44;9.99;83.78
68701;DHT22;55682;51.114;5.882;2024-01-06T02:03:12;9.98;83.73
68701;DHT22;55682;51.114;5.882;2024-01-06T02:05:39;9.97;83.87
68701;DHT22;55682;51.114;5.882;2024-01-06T02:08:05;9.95;83.84
68701;DHT22;55682;51.114;5.882;2024-01-06T02:10:31;9.95;83.72
68701;DHT22;55682;51.114;5.882;2024-01-06T02:12:57;9.91;83.75
68701;DHT22;55682;51.114;5.882;2024-01-06T02:15:22;9.86;83.82
68701;DHT22;55682;51.114;5.882;2024-01-06T02:17:48;9.81;83.81
68701;DHT22;55682;51.114;5.882;2024-01-06T02:20:16;9.79;83.85
68701;DHT22;55682;51.114;5.882;2024-01-06T02:22:46;9.78;83.83
68701;DHT22;55682;51.114;5.882;2024-01-06T02:25:11;9.80;83.76
68701;DHT22;55682;51.114;5.882;2024-01-06T02:27:39;9.84;83.63
68701;DHT22;55682;51.114;5.882;2024-01-06T02:30:06;9.88;83.56
68701;DHT22;55682;51.114;5.882;2024-01-06T02:32:32;9.88;83.41
68701;DHT22;55682;51.114;5.882;2024-01-06T02:34:57;9.82;83.37
68701;DHT22;55682;51.114;5.882;2024-01-06T02:37:23;9.78;83.31
68701;DHT22;55682;51.114;5.882;2024-01-06T02:39:48;9.72;83.32
68701;DHT22;55682;51.114;5.882;2024-01-06T02:42:14;9.69;83.08
68701;DHT22;55682;51.114;5.882;2024-01-06T02:44:40;9.65;82.87
68701;DHT22;55682;51.114;5.882;2024-01-06T02:47:05;9.59;82.50
68701;DHT22;55682;51.114;5.882;2024-01-06T02:49:31;9.53;82.30
68701;DHT22;55682;51.114;5.882;2024-01-06T02:51:57;9.47;82.23
68701;DHT22;55682;51.114;5.882;2024-01-06T02:54:22;9.42;82.18
68701;DHT22;55682;51.114;5.882;2024-01-06T02:56:48;9.44;82.10
68701;DHT22;55682;51.114;5.882;2024-01-06T02:59:13;9.44;82.01
68701;DHT22;55682;51.114;5.882;2024-01-06T03:01:39;9.47;82.09
68701;DHT22;55682;51.114;5.882;2024-01-06T03:04:05;9.47;81.96
68701;DHT22;55682;51.114;5.882;2024-01-06T03:06:30;9.42;82.05
68701;DHT22;55682;51.114;5.882;2024-01-06T03:08:56;9.40;82.08
68701;DHT22;55682;51.114;5.882;2024-01-06T03:11:22;9.40;81.92
68701;DHT22;55682;51.114;5.882;2024-01-06T03:13:48;9.39;81.93
68701;DHT22;55682;51.114;5.882;2024-01-06T03:16:13;9.36;81.86
68701;DHT22;55682;51.114;5.882;2024-01-06T03:18:39;9.37;81.85
68701;DHT22;55682;51.114;5.882;2024-01-06T03:21:04;9.38;81.84
68701;DHT22;55682;51.114;5.882;2024-01-06T03:23:30;9.35;81.85
68701;DHT22;55682;51.114;5.882;2024-01-06T03:25:56;9.34;82.00
68701;DHT22;55682;51.114;5.882;2024-01-06T03:28:21;9.34;81.80
68701;DHT22;55682;51.114;5.882;2024-01-06T03:30:47;9.31;81.59
68701;DHT22;55682;51.114;5.882;2024-01-06T03:33:14;9.26;81.62
68701;DHT22;55682;51.114;5.882;2024-01-06T03:35:39;9.24;81.49
68701;DHT22;55682;51.114;5.882;2024-01-06T03:38:05;9.21;81.35
68701;DHT22;55682;51.114;5.882;2024-01-06T03:40:30;9.20;81.12
68701;DHT22;55682;51.114;5.882;2024-01-06T03:42:56;9.18;81.01
68701;DHT22;55682;51.114;5.882;2024-01-06T03:45:21;9.14;81.10
68701;DHT22;55682;51.114;5.882;2024-01-06T03:47:47;9.11;81.22
68701;DHT22;55682;51.114;5.882;2024-01-06T03:50:13;9.09;81.27
68701;DHT22;55682;51.114;5.882;2024-01-06T03:52:39;9.05;81.12
68701;DHT22;55682;51.114;5.882;2024-01-06T03:55:05;9.03;81.18
68701;DHT22;55682;51.114;5.882;2024-01-06T03:57:31;9.03;81.10
68701;DHT22;55682;51.114;5.882;2024-01-06T03:59:57;8.97;80.94
68701;DHT22;55682;51.114;5.882;2024-01-06T04:02:22;8.90;81.01
68701;DHT22;55682;51.114;5.882;2024-01-06T04:04:49;8.90;81.30
68701;DHT22;55682;51.114;5.882;2024-01-06T04:07:15;8.88;81.29
68701;DHT22;55682;51.114;5.882;2024-01-06T04:09:43;8.86;81.30
68701;DHT22;55682;51.114;5.882;2024-01-06T04:12:09;8.86;81.32
68701;DHT22;55682;51.114;5.882;2024-01-06T04:14:35;8.81;81.30
68701;DHT22;55682;51.114;5.882;2024-01-06T04:17:00;8.79;81.49
68701;DHT22;55682;51.114;5.882;2024-01-06T04:19:26;8.79;81.37
68701;DHT22;55682;51.114;5.882;2024-01-06T04:21:51;8.76;81.52
68701;DHT22;55682;51.114;5.882;2024-01-06T04:24:17;8.80;81.70
68701;DHT22;55682;51.114;5.882;2024-01-06T04:26:43;8.83;81.68
68701;DHT22;55682;51.114;5.882;2024-01-06T04:29:10;8.82;81.57
68701;DHT22;55682;51.114;5.882;2024-01-06T04:31:37;8.88;81.60
68701;DHT22;55682;51.114;5.882;2024-01-06T04:34:03;8.90;81.59
68701;DHT22;55682;51.114;5.882;2024-01-06T04:36:28;8.91;81.45
68701;DHT22;55682;51.114;5.882;2024-01-06T04:38:54;8.92;81.37
68701;DHT22;55682;51.114;5.882;2024-01-06T04:41:21;8.91;81.14
68701;DHT22;55682;51.114;5.882;2024-01-06T04:43:46;8.88;81.21
68701;DHT22;55682;51.114;5.882;2024-01-06T04:46:12;8.87;81.09
68701;DHT22;55682;51.114;5.882;2024-01-06T04:48:41;8.89;80.94
68701;DHT22;55682;51.114;5.882;2024-01-06T04:51:06;8.85;81.08
68701;DHT22;55682;51.114;5.882;2024-01-06T04:53:38;8.81;81.03
68701;DHT22;55682;51.114;5.882;2024-01-06T04:56:04;8.80;81.10
68701;DHT22;55682;51.114;5.882;2024-01-06T04:58:30;8.81;81.14
68701;DHT22;55682;51.114;5.882;2024-01-06T05:04:52;8.71;80.36
68701;DHT22;55682;51.114;5.882;2024-01-06T05:07:17;8.59;80.32
68701;DHT22;55682;51.114;5.882;2024-01-06T05:09:43;8.51;80.33
68701;DHT22;55682;51.114;5.882;2024-01-06T05:12:08;8.46;80.33
68701;DHT22;55682;51.114;5.882;2024-01-06T05:14:35;8.43;80.14
68701;DHT22;55682;51.114;5.882;2024-01-06T05:17:00;8.41;80.14
68701;DHT22;55682;51.114;5.882;2024-01-06T05:19:26;8.36;79.87
68701;DHT22;55682;51.114;5.882;2024-01-06T05:21:52;8.28;79.77
68701;DHT22;55682;51.114;5.882;2024-01-06T05:24:18;8.26;79.86
68701;DHT22;55682;51.114;5.882;2024-01-06T05:26:44;8.26;79.95
68701;DHT22;55682;51.114;5.882;2024-01-06T05:29:10;8.26;79.78
68701;DHT22;55682;51.114;5.882;2024-01-06T05:31:35;8.24;79.82
68701;DHT22;55682;51.114;5.882;2024-01-06T05:34:01;8.23;79.59
68701;DHT22;55682;51.114;5.882;2024-01-06T05:36:27;8.22;79.57
68701;DHT22;55682;51.114;5.882;2024-01-06T05:38:52;8.17;79.53
68701;DHT22;55682;51.114;5.882;2024-01-06T05:41:18;8.12;79.45
68701;DHT22;55682;51.114;5.882;2024-01-06T05:43:44;8.03;79.58
68701;DHT22;55682;51.114;5.882;2024-01-06T05:46:09;8.00;79.66
68701;DHT22;55682;51.114;5.882;2024-01-06T05:48:36;7.99;79.79
68701;DHT22;55682;51.114;5.882;2024-01-06T05:51:04;7.98;79.68
68701;DHT22;55682;51.114;5.882;2024-01-06T05:53:31;7.98;79.65
68701;DHT22;55682;51.114;5.882;2024-01-06T05:55:56;7.97;79.72
68701;DHT22;55682;51.114;5.882;2024-01-06T05:58:22;7.98;79.60
68701;DHT22;55682;51.114;5.882;2024-01-06T06:00:48;7.97;79.48
68701;DHT22;55682;51.114;5.882;2024-01-06T06:03:14;7.97;79.45
68701;DHT22;55682;51.114;5.882;2024-01-06T06:05:39;7.93;79.21
68701;DHT22;55682;51.114;5.882;2024-01-06T06:08:05;7.88;79.03
68701;DHT22;55682;51.114;5.882;2024-01-06T06:10:31;7.84;79.02
68701;DHT22;55682;51.114;5.882;2024-01-06T06:13:07;7.78;78.98
68701;DHT22;55682;51.114;5.882;2024-01-06T06:15:35;7.78;79.00
68701;DHT22;55682;51.114;5.882;2024-01-06T06:18:00;7.77;79.18
68701;DHT22;55682;51.114;5.882;2024-01-06T06:20:26;7.76;79.14
68701;DHT22;55682;51.114;5.882;2024-01-06T06:22:51;7.78;79.26
68701;DHT22;55682;51.114;5.882;2024-01-06T06:25:17;7.81;79.28
68701;DHT22;55682;51.114;5.882;2024-01-06T06:27:43;7.82;79.22
68701;DHT22;55682;51.114;5.882;2024-01-06T06:30:08;7.76;79.08
68701;DHT22;55682;51.114;5.882;2024-01-06T06:32:34;7.68;78.95
68701;DHT22;55682;51.114;5.882;2024-01-06T06:35:00;7.65;78.90
68701;DHT22;55682;51.114;5.882;2024-01-06T06:37:25;7.63;78.93
68701;DHT22;55682;51.114;5.882;2024-01-06T06:39:51;7.63;78.89
68701;DHT22;55682;51.114;5.882;2024-01-06T06:42:16;7.60;78.86
68701;DHT22;55682;51.114;5.882;2024-01-06T06:44:42;7.57;78.65
68701;DHT22;55682;51.114;5.882;2024-01-06T06:47:08;7.57;78.58
68701;DHT22;55682;51.114;5.882;2024-01-06T06:49:33;7.59;78.37
68701;DHT22;55682;51.114;5.882;2024-01-06T06:51:59;7.61;78.14
68701;DHT22;55682;51.114;5.882;2024-01-06T06:54:25;7.61;78.04
68701;DHT22;55682;51.114;5.882;2024-01-06T06:56:50;7.60;77.80
68701;DHT22;55682;51.114;5.882;2024-01-06T06:59:16;7.60;78.05
68701;DHT22;55682;51.114;5.882;2024-01-06T07:01:42;7.61;77.90
68701;DHT22;55682;51.114;5.882;2024-01-06T07:04:07;7.61;77.89
68701;DHT22;55682;51.114;5.882;2024-01-06T07:06:33;7.63;77.90
68701;DHT22;55682;51.114;5.882;2024-01-06T07:08:59;7.64;77.68
68701;DHT22;55682;51.114;5.882;2024-01-06T07:11:25;7.61;77.72
68701;DHT22;55682;51.114;5.882;2024-01-06T07:13:51;7.64;77.85
68701;DHT22;55682;51.114;5.882;2024-01-06T07:16:16;7.64;77.63
68701;DHT22;55682;51.114;5.882;2024-01-06T07:18:42;7.61;77.38
68701;DHT22;55682;51.114;5.882;2024-01-06T07:21:08;7.57;77.24
68701;DHT22;55682;51.114;5.882;2024-01-06T07:23:34;7.55;77.26
68701;DHT22;55682;51.114;5.882;2024-01-06T07:26:00;7.55;77.32
68701;DHT22;55682;51.114;5.882;2024-01-06T07:28:26;7.50;77.31
68701;DHT22;55682;51.114;5.882;2024-01-06T07:30:51;7.52;77.45
68701;DHT22;55682;51.114;5.882;2024-01-06T07:33:17;7.54;77.61
68701;DHT22;55682;51.114;5.882;2024-01-06T07:35:43;7.56;77.68
68701;DHT22;55682;51.114;5.882;2024-01-06T07:38:09;7.56;77.42
68701;DHT22;55682;51.114;5.882;2024-01-06T07:40:38;7.56;77.53
68701;DHT22;55682;51.114;5.882;2024-01-06T07:43:04;7.56;77.66
68701;DHT22;55682;51.114;5.882;2024-01-06T07:45:31;7.56;77.63
68701;DHT22;55682;51.114;5.882;2024-01-06T07:47:58;7.55;77.76
68701;DHT22;55682;51.114;5.882;2024-01-06T07:50:23;7.54;77.87
68701;DHT22;55682;51.114;5.882;2024-01-06T07:52:49;7.54;77.88
68701;DHT22;55682;51.114;5.882;2024-01-06T07:55:15;7.52;77.85
68701;DHT22;55682;51.114;5.882;2024-01-06T07:57:41;7.49;78.05
68701;DHT22;55682;51.114;5.882;2024-01-06T08:00:08;7.54;78.15
68701;DHT22;55682;51.114;5.882;2024-01-06T08:02:39;7.54;78.08
68701;DHT22;55682;51.114;5.882;2024-01-06T08:05:04;7.55;77.85
68701;DHT22;55682;51.114;5.882;2024-01-06T08:07:31;7.57;77.75
68701;DHT22;55682;51.114;5.882;2024-01-06T08:09:57;7.59;77.80
68701;DHT22;55682;51.114;5.882;2024-01-06T08:12:22;7.57;77.66
68701;DHT22;55682;51.114;5.882;2024-01-06T08:14:48;7.57;77.74
68701;DHT22;55682;51.114;5.882;2024-01-06T08:17:13;7.54;77.61
68701;DHT22;55682;51.114;5.882;2024-01-06T08:19:39;7.53;77.76
68701;DHT22;55682;51.114;5.882;2024-01-06T08:22:04;7.56;78.15
68701;DHT22;55682;51.114;5.882;2024-01-06T08:24:30;7.60;78.08
68701;DHT22;55682;51.114;5.882;2024-01-06T08:26:56;7.62;77.93
68701;DHT22;55682;51.114;5.882;2024-01-06T08:29:21;7.64;78.04
68701;DHT22;55682;51.114;5.882;2024-01-06T08:31:47;7.64;77.72
68701;DHT22;55682;51.114;5.882;2024-01-06T08:34:12;7.60;77.51
68701;DHT22;55682;51.114;5.882;2024-01-06T08:36:38;7.54;77.34
68701;DHT22;55682;51.114;5.882;2024-01-06T08:39:04;7.47;77.40
68701;DHT22;55682;51.114;5.882;2024-01-06T08:41:30;7.47;77.72
68701;DHT22;55682;51.114;5.882;2024-01-06T08:43:55;7.45;77.73
68701;DHT22;55682;51.114;5.882;2024-01-06T08:46:21;7.43;77.69
68701;DHT22;55682;51.114;5.882;2024-01-06T08:48:46;7.45;77.58
68701;DHT22;55682;51.114;5.882;2024-01-06T08:51:12;7.44;77.51
68701;DHT22;55682;51.114;5.882;2024-01-06T08:53:37;7.45;77.56
68701;DHT22;55682;51.114;5.882;2024-01-06T08:56:03;7.46;77.76
68701;DHT22;55682;51.114;5.882;2024-01-06T08:58:29;7.47;77.69
68701;DHT22;55682;51.114;5.882;2024-01-06T09:00:54;7.47;77.69
68701;DHT22;55682;51.114;5.882;2024-01-06T09:03:20;7.49;77.63
68701;DHT22;55682;51.114;5.882;2024-01-06T09:05:56;7.49;77.53
68701;DHT22;55682;51.114;5.882;2024-01-06T09:08:22;7.47;77.35
68701;DHT22;55682;51.114;5.882;2024-01-06T09:10:49;7.48;77.32
68701;DHT22;55682;51.114;5.882;2024-01-06T09:13:20;7.48;77.44
68701;DHT22;55682;51.114;5.882;2024-01-06T09:15:47;7.46;77.47
68701;DHT22;55682;51.114;5.882;2024-01-06T09:18:13;7.42;77.50
68701;DHT22;55682;51.114;5.882;2024-01-06T09:20:38;7.43;77.60
68701;DHT22;55682;51.114;5.882;2024-01-06T09:23:04;7.44;77.80
68701;DHT22;55682;51.114;5.882;2024-01-06T09:25:30;7.48;77.90
68701;DHT22;55682;51.114;5.882;2024-01-06T09:27:55;7.52;77.95
68701;DHT22;55682;51.114;5.882;2024-01-06T09:30:21;7.56;77.82
68701;DHT22;55682;51.114;5.882;2024-01-06T09:32:47;7.61;77.70
68701;DHT22;55682;51.114;5.882;2024-01-06T09:35:12;7.64;77.62
68701;DHT22;55682;51.114;5.882;2024-01-06T09:37:38;7.64;77.53
68701;DHT22;55682;51.114;5.882;2024-01-06T09:40:04;7.64;77.43
68701;DHT22;55682;51.114;5.882;2024-01-06T09:42:29;7.62;77.66
68701;DHT22;55682;51.114;5.882;2024-01-06T09:44:55;7.63;77.59
68701;DHT22;55682;51.114;5.882;2024-01-06T09:47:22;7.63;77.79
68701;DHT22;55682;51.114;5.882;2024-01-06T09:49:50;7.67;77.92
68701;DHT22;55682;51.114;5.882;2024-01-06T09:52:21;7.72;77.87
68701;DHT22;55682;51.114;5.882;2024-01-06T09:54:53;7.75;77.76
68701;DHT22;55682;51.114;5.882;2024-01-06T09:57:20;7.78;77.54
68701;DHT22;55682;51.114;5.882;2024-01-06T09:59:46;7.78;77.34
68701;DHT22;55682;51.114;5.882;2024-01-06T10:02:14;7.75;77.24
68701;DHT22;55682;51.114;5.882;2024-01-06T10:04:41;7.75;77.21
68701;DHT22;55682;51.114;5.882;2024-01-06T10:07:08;7.74;77.11
68701;DHT22;55682;51.114;5.882;2024-01-06T10:09:33;7.73;77.24
68701;DHT22;55682;51.114;5.882;2024-01-06T10:11:59;7.76;77.27
68701;DHT22;55682;51.114;5.882;2024-01-06T10:14:25;7.77;77.28
68701;DHT22;55682;51.114;5.882;2024-01-06T10:16:52;7.75;77.39
68701;DHT22;55682;51.114;5.882;2024-01-06T10:19:18;7.75;77.42
68701;DHT22;55682;51.114;5.882;2024-01-06T10:21:44;7.75;77.51
68701;DHT22;55682;51.114;5.882;2024-01-06T10:24:10;7.81;77.60
68701;DHT22;55682;51.114;5.882;2024-01-06T10:26:36;7.84;77.56
68701;DHT22;55682;51.114;5.882;2024-01-06T10:29:01;7.87;77.59
68701;DHT22;55682;51.114;5.882;2024-01-06T10:31:29;7.86;77.71
68701;DHT22;55682;51.114;5.882;2024-01-06T10:33:55;7.84;77.78
68701;DHT22;55682;51.114;5.882;2024-01-06T10:36:24;7.83;77.81
68701;DHT22;55682;51.114;5.882;2024-01-06T10:38:52;7.81;77.87
68701;DHT22;55682;51.114;5.882;2024-01-06T10:41:19;7.78;77.96
68701;DHT22;55682;51.114;5.882;2024-01-06T10:43:46;7.76;78.03
68701;DHT22;55682;51.114;5.882;2024-01-06T10:46:14;7.70;78.15
68701;DHT22;55682;51.114;5.882;2024-01-06T10:48:42;7.73;78.01
68701;DHT22;55682;51.114;5.882;2024-01-06T10:51:09;7.70;77.93
68701;DHT22;55682;51.114;5.882;2024-01-06T10:53:35;7.67;78.11
68701;DHT22;55682;51.114;5.882;2024-01-06T10:56:03;7.64;78.25
68701;DHT22;55682;51.114;5.882;2024-01-06T10:58:30;7.60;78.33
68701;DHT22;55682;51.114;5.882;2024-01-06T11:00:56;7.63;78.48
68701;DHT22;55682;51.114;5.882;2024-01-06T11:03:22;7.61;78.50
68701;DHT22;55682;51.114;5.882;2024-01-06T11:05:49;7.59;78.56
68701;DHT22;55682;51.114;5.882;2024-01-06T11:08:17;7.55;78.47
68701;DHT22;55682;51.114;5.882;2024-01-06T11:10:45;7.53;78.54
68701;DHT22;55682;51.114;5.882;2024-01-06T11:13:15;7.50;78.43
68701;DHT22;55682;51.114;5.882;2024-01-06T11:15:47;7.47;78.27
68701;DHT22;55682;51.114;5.882;2024-01-06T11:23:40;7.43;78.19
68701;DHT22;55682;51.114;5.882;2024-01-06T11:26:07;7.40;78.30
68701;DHT22;55682;51.114;5.882;2024-01-06T11:28:46;7.35;78.49
68701;DHT22;55682;51.114;5.882;2024-01-06T11:31:12;7.35;78.41
68701;DHT22;55682;51.114;5.882;2024-01-06T11:33:45;7.33;78.26
68701;DHT22;55682;51.114;5.882;2024-01-06T11:36:15;7.33;78.16
68701;DHT22;55682;51.114;5.882;2024-01-06T11:38:41;7.32;78.03
68701;DHT22;55682;51.114;5.882;2024-01-06T11:41:10;7.32;78.25
68701;DHT22;55682;51.114;5.882;2024-01-06T11:43:56;7.37;78.08
68701;DHT22;55682;51.114;5.882;2024-01-06T11:46:21;7.41;77.92
68701;DHT22;55682;51.114;5.882;2024-01-06T11:48:47;7.41;77.75
68701;DHT22;55682;51.114;5.882;2024-01-06T11:51:17;7.40;77.60
68701;DHT22;55682;51.114;5.882;2024-01-06T11:53:44;7.39;77.50
68701;DHT22;55682;51.114;5.882;2024-01-06T11:56:11;7.40;77.46
68701;DHT22;55682;51.114;5.882;2024-01-06T11:58:39;7.41;77.31
68701;DHT22;55682;51.114;5.882;2024-01-06T12:01:05;7.45;77.40
68701;DHT22;55682;51.114;5.882;2024-01-06T12:03:31;7.45;77.40
68701;DHT22;55682;51.114;5.882;2024-01-06T12:06:00;7.44;77.18
68701;DHT22;55682;51.114;5.882;2024-01-06T12:08:28;7.40;77.29
68701;DHT22;55682;51.114;5.882;2024-01-06T12:11:12;7.38;77.50
68701;DHT22;55682;51.114;5.882;2024-01-06T12:13:38;7.38;77.56
68701;DHT22;55682;51.114;5.882;2024-01-06T12:16:04;7.33;77.63
68701;DHT22;55682;51.114;5.882;2024-01-06T12:18:32;7.35;77.79
68701;DHT22;55682;51.114;5.882;2024-01-06T12:20:59;7.32;77.67
68701;DHT22;55682;51.114;5.882;2024-01-06T12:23:28;7.29;77.84
68701;DHT22;55682;51.114;5.882;2024-01-06T12:25:54;7.26;77.79
68701;DHT22;55682;51.114;5.882;2024-01-06T12:28:20;7.22;77.78
68701;DHT22;55682;51.114;5.882;2024-01-06T12:30:46;7.18;77.92
68701;DHT22;55682;51.114;5.882;2024-01-06T12:33:11;7.14;77.92
68701;DHT22;55682;51.114;5.882;2024-01-06T12:35:38;7.11;77.95
68701;DHT22;55682;51.114;5.882;2024-01-06T12:38:04;7.09;77.79
68701;DHT22;55682;51.114;5.882;2024-01-06T12:40:33;7.07;77.92
68701;DHT22;55682;51.114;5.882;2024-01-06T12:43:00;7.03;78.00
68701;DHT22;55682;51.114;5.882;2024-01-06T12:45:25;7.04;78.08
68701;DHT22;55682;51.114;5.882;2024-01-06T12:47:53;7.07;77.93
68701;DHT22;55682;51.114;5.882;2024-01-06T12:50:19;7.05;78.05
68701;DHT22;55682;51.114;5.882;2024-01-06T12:52:45;7.00;77.77
68701;DHT22;55682;51.114;5.882;2024-01-06T12:55:11;6.94;77.99
68701;DHT22;55682;51.114;5.882;2024-01-06T12:57:38;6.96;78.10
68701;DHT22;55682;51.114;5.882;2024-01-06T13:00:04;6.96;77.82
68701;DHT22;55682;51.114;5.882;2024-01-06T13:02:33;6.91;77.72
68701;DHT22;55682;51.114;5.882;2024-01-06T13:04:58;6.93;77.98
68701;DHT22;55682;51.114;5.882;2024-01-06T13:07:24;6.96;78.03
68701;DHT22;55682;51.114;5.882;2024-01-06T13:09:50;6.96;77.85
68701;DHT22;55682;51.114;5.882;2024-01-06T13:12:16;6.94;77.76
68701;DHT22;55682;51.114;5.882;2024-01-06T13:14:44;6.95;77.65
68701;DHT22;55682;51.114;5.882;2024-01-06T13:17:13;6.96;77.60
68701;DHT22;55682;51.114;5.882;2024-01-06T13:19:39;6.96;77.56
68701;DHT22;55682;51.114;5.882;2024-01-06T13:22:05;6.96;77.47
68701;DHT22;55682;51.114;5.882;2024-01-06T13:24:30;6.97;77.64
68701;DHT22;55682;51.114;5.882;2024-01-06T13:26:56;6.96;77.72
68701;DHT22;55682;51.114;5.882;2024-01-06T13:29:24;6.95;77.85
68701;DHT22;55682;51.114;5.882;2024-01-06T13:31:50;6.95;77.88
68701;DHT22;55682;51.114;5.882;2024-01-06T13:34:15;6.94;77.63
68701;DHT22;55682;51.114;5.882;2024-01-06T13:36:41;6.88;77.66
68701;DHT22;55682;51.114;5.882;2024-01-06T13:39:07;6.89;77.59
68701;DHT22;55682;51.114;5.882;2024-01-06T13:41:32;6.87;77.55
68701;DHT22;55682;51.114;5.882;2024-01-06T13:43:58;6.85;77.53
68701;DHT22;55682;51.114;5.882;2024-01-06T13:46:24;6.86;77.72
68701;DHT22;55682;51.114;5.882;2024-01-06T13:48:50;6.86;77.70
68701;DHT22;55682;51.114;5.882;2024-01-06T13:51:16;6.85;77.85
68701;DHT22;55682;51.114;5.882;2024-01-06T13:53:42;6.88;77.92
68701;DHT22;55682;51.114;5.882;2024-01-06T13:56:08;6.86;77.75
68701;DHT22;55682;51.114;5.882;2024-01-06T13:58:33;6.80;77.82
68701;DHT22;55682;51.114;5.882;2024-01-06T14:01:02;6.82;77.97
68701;DHT22;55682;51.114;5.882;2024-01-06T14:03:28;6.80;77.91
68701;DHT22;55682;51.114;5.882;2024-01-06T14:05:53;6.82;78.00
68701;DHT22;55682;51.114;5.882;2024-01-06T14:08:19;6.81;78.08
68701;DHT22;55682;51.114;5.882;2024-01-06T14:10:45;6.78;77.85
68701;DHT22;55682;51.114;5.882;2024-01-06T14:13:11;6.70;78.05
68701;DHT22;55682;51.114;5.882;2024-01-06T14:15:36;6.68;78.05
68701;DHT22;55682;51.114;5.882;2024-01-06T14:18:03;6.69;78.00
68701;DHT22;55682;51.114;5.882;2024-01-06T14:20:29;6.70;77.85
68701;DHT22;55682;51.114;5.882;2024-01-06T14:22:54;6.69;77.72
68701;DHT22;55682;51.114;5.882;2024-01-06T14:25:20;6.70;77.86
68701;DHT22;55682;51.114;5.882;2024-01-06T14:27:46;6.70;77.60
68701;DHT22;55682;51.114;5.882;2024-01-06T14:30:12;6.68;77.68
68701;DHT22;55682;51.114;5.882;2024-01-06T14:32:38;6.70;77.82
68701;DHT22;55682;51.114;5.882;2024-01-06T14:35:07;6.69;77.89
68701;DHT22;55682;51.114;5.882;2024-01-06T14:37:35;6.70;78.01
68701;DHT22;55682;51.114;5.882;2024-01-06T14:40:01;6.73;77.88
68701;DHT22;55682;51.114;5.882;2024-01-06T14:42:31;6.72;77.82
68701;DHT22;55682;51.114;5.882;2024-01-06T14:44:58;6.72;77.98
68701;DHT22;55682;51.114;5.882;2024-01-06T14:47:24;6.73;77.85
68701;DHT22;55682;51.114;5.882;2024-01-06T14:49:50;6.68;77.95
68701;DHT22;55682;51.114;5.882;2024-01-06T14:52:15;6.68;78.09
68701;DHT22;55682;51.114;5.882;2024-01-06T14:54:42;6.68;78.10
68701;DHT22;55682;51.114;5.882;2024-01-06T14:57:07;6.70;78.12
68701;DHT22;55682;51.114;5.882;2024-01-06T14:59:33;6.65;77.42
68701;DHT22;55682;51.114;5.882;2024-01-06T15:02:02;6.51;77.46
68701;DHT22;55682;51.114;5.882;2024-01-06T15:12:02;6.36;77.77
68701;DHT22;55682;51.114;5.882;2024-01-06T15:14:28;6.35;77.78
68701;DHT22;55682;51.114;5.882;2024-01-06T15:16:53;6.34;77.86
68701;DHT22;55682;51.114;5.882;2024-01-06T15:19:19;6.35;77.82
68701;DHT22;55682;51.114;5.882;2024-01-06T15:21:45;6.29;77.70
68701;DHT22;55682;51.114;5.882;2024-01-06T15:24:13;6.28;77.93
68701;DHT22;55682;51.114;5.882;2024-01-06T15:26:40;6.27;77.95
68701;DHT22;55682;51.114;5.882;2024-01-06T15:29:06;6.30;78.10
68701;DHT22;55682;51.114;5.882;2024-01-06T15:31:31;6.34;78.01
68701;DHT22;55682;51.114;5.882;2024-01-06T15:33:57;6.35;77.93
68701;DHT22;55682;51.114;5.882;2024-01-06T15:36:23;6.35;78.11
68701;DHT22;55682;51.114;5.882;2024-01-06T15:38:49;6.37;78.06
68701;DHT22;55682;51.114;5.882;2024-01-06T15:41:14;6.39;78.05
68701;DHT22;55682;51.114;5.882;2024-01-06T15:43:40;6.40;77.91
68701;DHT22;55682;51.114;5.882;2024-01-06T15:46:05;6.34;77.89
68701;DHT22;55682;51.114;5.882;2024-01-06T15:48:31;6.33;77.98
68701;DHT22;55682;51.114;5.882;2024-01-06T15:50:57;6.27;77.95
68701;DHT22;55682;51.114;5.882;2024-01-06T15:53:23;6.22;77.91
68701;DHT22;55682;51.114;5.882;2024-01-06T15:55:48;6.16;78.23